NCAR-RAP Real-Time Weather Data

Output produced by METARs form (23 April 2019  08:28 UTC)
found at http://weather.rap.ucar.edu/surface/
 
KFNT 230753Z 18014KT 10SM FEW090 SCT110 16/08 A2985 RMK AO2 RAB21E49 SLP105 P0000 T01610078